sensor_id;sensor_type;location;lat;lon;timestamp;P1;P2;P0
78512;PMS5003;67809;55.034;73.462;2024-01-15T00:00:57;17.00;13.75;9.00
78512;PMS5003;67809;55.034;73.462;2024-01-15T00:06:07;10.75;8.75;5.25
78512;PMS5003;67809;55.034;73.462;2024-01-15T00:08:33;13.50;9.25;5.25
78512;PMS5003;67809;55.034;73.462;2024-01-15T00:11:18;16.20;12.00;7.00
78512;PMS5003;67809;55.034;73.462;2024-01-15T00:16:29;17.50;14.00;8.50
78512;PMS5003;67809;55.034;73.462;2024-01-15T00:19:13;23.50;18.00;11.00
78512;PMS5003;67809;55.034;73.462;2024-01-15T00:21:39;13.33;9.33;6.00
78512;PMS5003;67809;55.034;73.462;2024-01-15T00:26:52;10.50;8.50;5.25
78512;PMS5003;67809;55.034;73.462;2024-01-15T00:29:19;15.25;12.50;9.00
78512;PMS5003;67809;55.034;73.462;2024-01-15T00:31:45;14.00;10.00;7.00
78512;PMS5003;67809;55.034;73.462;2024-01-15T00:34:11;19.00;14.50;8.50
78512;PMS5003;67809;55.034;73.462;2024-01-15T00:36:37;15.00;12.00;7.00
78512;PMS5003;67809;55.034;73.462;2024-01-15T00:39:03;15.50;10.00;6.25
78512;PMS5003;67809;55.034;73.462;2024-01-15T00:41:31;21.00;16.00;10.00
78512;PMS5003;67809;55.034;73.462;2024-01-15T00:43:57;16.00;12.00;8.00
78512;PMS5003;67809;55.034;73.462;2024-01-15T00:46:23;20.00;13.75;8.50
78512;PMS5003;67809;55.034;73.462;2024-01-15T00:48:49;15.00;10.00;6.25
78512;PMS5003;67809;55.034;73.462;2024-01-15T00:56:44;11.75;9.75;6.00
78512;PMS5003;67809;55.034;73.462;2024-01-15T00:59:28;12.25;9.25;4.50
78512;PMS5003;67809;55.034;73.462;2024-01-15T01:01:54;19.00;15.00;7.33
78512;PMS5003;67809;55.034;73.462;2024-01-15T01:04:20;11.00;9.00;5.25
78512;PMS5003;67809;55.034;73.462;2024-01-15T01:06:46;14.50;12.00;7.00
78512;PMS5003;67809;55.034;73.462;2024-01-15T01:09:12;21.50;15.00;9.00
78512;PMS5003;67809;55.034;73.462;2024-01-15T01:11:38;23.25;16.50;11.25
78512;PMS5003;67809;55.034;73.462;2024-01-15T01:14:09;19.33;14.67;9.00
78512;PMS5003;67809;55.034;73.462;2024-01-15T01:16:36;16.00;11.50;6.75
78512;PMS5003;67809;55.034;73.462;2024-01-15T01:19:05;14.50;12.00;6.00
78512;PMS5003;67809;55.034;73.462;2024-01-15T01:21:49;18.50;15.00;8.00
78512;PMS5003;67809;55.034;73.462;2024-01-15T01:24:17;31.67;24.00;13.00
78512;PMS5003;67809;55.034;73.462;2024-01-15T01:26:43;27.00;22.00;13.00
78512;PMS5003;67809;55.034;73.462;2024-01-15T01:29:09;29.00;23.00;13.00
78512;PMS5003;67809;55.034;73.462;2024-01-15T01:31:53;26.00;21.00;14.00
78512;PMS5003;67809;55.034;73.462;2024-01-15T01:34:20;16.33;14.00;9.00
78512;PMS5003;67809;55.034;73.462;2024-01-15T01:39:30;25.25;18.75;10.25
78512;PMS5003;67809;55.034;73.462;2024-01-15T01:41:57;24.00;19.00;10.25
78512;PMS5003;67809;55.034;73.462;2024-01-15T01:44:41;30.00;25.00;13.00
78512;PMS5003;67809;55.034;73.462;2024-01-15T01:47:08;37.50;28.25;16.75
78512;PMS5003;67809;55.034;73.462;2024-01-15T01:49:34;21.00;15.75;8.25
78512;PMS5003;67809;55.034;73.462;2024-01-15T01:52:01;24.00;17.00;9.00
78512;PMS5003;67809;55.034;73.462;2024-01-15T01:54:29;38.00;28.67;18.00
78512;PMS5003;67809;55.034;73.462;2024-01-15T01:56:56;32.75;25.00;16.00
78512;PMS5003;67809;55.034;73.462;2024-01-15T01:59:22;32.50;24.75;14.50
78512;PMS5003;67809;55.034;73.462;2024-01-15T02:01:49;31.25;26.00;16.00
78512;PMS5003;67809;55.034;73.462;2024-01-15T02:07:19;32.75;23.75;14.00
78512;PMS5003;67809;55.034;73.462;2024-01-15T02:09:45;32.00;25.75;16.00
78512;PMS5003;67809;55.034;73.462;2024-01-15T02:12:11;22.50;17.25;8.25
78512;PMS5003;67809;55.034;73.462;2024-01-15T02:14:55;32.00;24.00;14.00
78512;PMS5003;67809;55.034;73.462;2024-01-15T02:17:21;29.00;24.00;15.50
78512;PMS5003;67809;55.034;73.462;2024-01-15T02:19:47;34.00;25.75;17.25
78512;PMS5003;67809;55.034;73.462;2024-01-15T02:22:32;32.75;26.00;15.00
78512;PMS5003;67809;55.034;73.462;2024-01-15T02:24:58;30.25;23.00;14.00
78512;PMS5003;67809;55.034;73.462;2024-01-15T02:27:24;24.75;19.50;11.50
78512;PMS5003;67809;55.034;73.462;2024-01-15T02:29:50;33.75;26.00;17.00
78512;PMS5003;67809;55.034;73.462;2024-01-15T02:32:16;37.75;28.50;16.50
78512;PMS5003;67809;55.034;73.462;2024-01-15T02:34:42;42.00;30.00;18.00
78512;PMS5003;67809;55.034;73.462;2024-01-15T02:37:08;26.25;20.00;12.00
78512;PMS5003;67809;55.034;73.462;2024-01-15T02:40:13;20.00;16.00;9.00
78512;PMS5003;67809;55.034;73.462;2024-01-15T02:42:39;28.75;22.00;14.00
78512;PMS5003;67809;55.034;73.462;2024-01-15T02:45:05;30.00;22.67;12.00
78512;PMS5003;67809;55.034;73.462;2024-01-15T02:47:31;22.75;17.25;9.75
78512;PMS5003;67809;55.034;73.462;2024-01-15T02:49:57;24.00;20.00;12.00
78512;PMS5003;67809;55.034;73.462;2024-01-15T02:52:23;19.75;15.75;9.00
78512;PMS5003;67809;55.034;73.462;2024-01-15T02:54:49;26.00;17.25;9.75
78512;PMS5003;67809;55.034;73.462;2024-01-15T02:57:34;11.50;9.50;5.25
78512;PMS5003;67809;55.034;73.462;2024-01-15T03:00:00;20.75;16.00;10.00
78512;PMS5003;67809;55.034;73.462;2024-01-15T03:02:26;22.75;16.75;10.00
78512;PMS5003;67809;55.034;73.462;2024-01-15T03:04:52;18.00;14.67;8.33
78512;PMS5003;67809;55.034;73.462;2024-01-15T03:07:18;35.00;28.00;18.00
78512;PMS5003;67809;55.034;73.462;2024-01-15T03:09:44;21.25;16.75;9.25
78512;PMS5003;67809;55.034;73.462;2024-01-15T03:12:10;27.00;21.00;13.00
78512;PMS5003;67809;55.034;73.462;2024-01-15T03:14:37;20.25;14.75;7.50
78512;PMS5003;67809;55.034;73.462;2024-01-15T03:17:03;30.25;23.75;15.75
78512;PMS5003;67809;55.034;73.462;2024-01-15T03:19:29;35.75;26.50;16.00
78512;PMS5003;67809;55.034;73.462;2024-01-15T03:21:56;25.00;19.25;13.50
78512;PMS5003;67809;55.034;73.462;2024-01-15T03:24:22;28.75;22.00;10.00
78512;PMS5003;67809;55.034;73.462;2024-01-15T03:26:48;24.00;18.25;10.25
78512;PMS5003;67809;55.034;73.462;2024-01-15T03:29:14;37.50;28.25;17.50
78512;PMS5003;67809;55.034;73.462;2024-01-15T03:31:40;24.75;20.00;9.75
78512;PMS5003;67809;55.034;73.462;2024-01-15T03:34:06;29.75;23.00;14.00
78512;PMS5003;67809;55.034;73.462;2024-01-15T03:36:32;23.00;17.00;9.00
78512;PMS5003;67809;55.034;73.462;2024-01-15T03:38:59;35.00;26.50;17.25
78512;PMS5003;67809;55.034;73.462;2024-01-15T03:41:25;29.00;23.00;14.00
78512;PMS5003;67809;55.034;73.462;2024-01-15T03:44:09;36.00;28.00;18.00
78512;PMS5003;67809;55.034;73.462;2024-01-15T03:46:35;19.25;14.00;7.00
78512;PMS5003;67809;55.034;73.462;2024-01-15T03:49:01;28.00;23.00;14.00
78512;PMS5003;67809;55.034;73.462;2024-01-15T03:51:27;29.00;20.75;12.50
78512;PMS5003;67809;55.034;73.462;2024-01-15T03:53:53;37.00;28.00;16.00
78512;PMS5003;67809;55.034;73.462;2024-01-15T03:56:19;24.00;17.75;11.00
78512;PMS5003;67809;55.034;73.462;2024-01-15T03:58:45;42.75;31.00;18.00
78512;PMS5003;67809;55.034;73.462;2024-01-15T04:01:11;32.00;25.00;16.00
78512;PMS5003;67809;55.034;73.462;2024-01-15T04:03:47;30.00;23.25;13.50
78512;PMS5003;67809;55.034;73.462;2024-01-15T04:06:14;40.75;32.00;19.00
78512;PMS5003;67809;55.034;73.462;2024-01-15T04:08:40;23.00;18.00;9.75
78512;PMS5003;67809;55.034;73.462;2024-01-15T04:11:06;26.50;19.50;10.50
78512;PMS5003;67809;55.034;73.462;2024-01-15T04:13:32;40.00;32.00;20.00
78512;PMS5003;67809;55.034;73.462;2024-01-15T04:15:59;29.33;22.33;13.00
78512;PMS5003;67809;55.034;73.462;2024-01-15T04:18:26;31.25;24.00;13.25
78512;PMS5003;67809;55.034;73.462;2024-01-15T04:20:52;28.00;22.75;13.00
78512;PMS5003;67809;55.034;73.462;2024-01-15T04:26:21;39.00;29.00;18.33
78512;PMS5003;67809;55.034;73.462;2024-01-15T04:29:06;46.25;32.50;19.25
78512;PMS5003;67809;55.034;73.462;2024-01-15T04:31:32;51.00;38.00;23.75
78512;PMS5003;67809;55.034;73.462;2024-01-15T04:33:58;40.75;30.00;16.75
78512;PMS5003;67809;55.034;73.462;2024-01-15T04:36:24;43.67;32.67;20.67
78512;PMS5003;67809;55.034;73.462;2024-01-15T04:38:50;27.00;20.00;13.50
78512;PMS5003;67809;55.034;73.462;2024-01-15T04:41:16;39.00;29.00;18.00
78512;PMS5003;67809;55.034;73.462;2024-01-15T04:43:43;34.25;26.00;15.50
78512;PMS5003;67809;55.034;73.462;2024-01-15T04:46:09;39.00;29.67;18.00
78512;PMS5003;67809;55.034;73.462;2024-01-15T04:48:35;34.25;24.50;13.75
78512;PMS5003;67809;55.034;73.462;2024-01-15T04:51:03;28.75;22.25;12.75
78512;PMS5003;67809;55.034;73.462;2024-01-15T04:53:36;32.75;25.00;14.25
78512;PMS5003;67809;55.034;73.462;2024-01-15T04:56:20;38.00;30.00;20.00
78512;PMS5003;67809;55.034;73.462;2024-01-15T04:58:46;32.00;24.50;14.25
78512;PMS5003;67809;55.034;73.462;2024-01-15T05:09:46;32.25;23.75;15.75
78512;PMS5003;67809;55.034;73.462;2024-01-15T05:12:15;28.50;22.75;13.00
78512;PMS5003;67809;55.034;73.462;2024-01-15T05:14:41;36.75;27.75;16.00
78512;PMS5003;67809;55.034;73.462;2024-01-15T05:17:07;39.50;30.75;20.75
78512;PMS5003;67809;55.034;73.462;2024-01-15T05:19:33;23.00;18.25;11.50
78512;PMS5003;67809;55.034;73.462;2024-01-15T05:22:00;21.00;16.00;9.75
78512;PMS5003;67809;55.034;73.462;2024-01-15T05:24:34;38.80;30.00;19.60
78512;PMS5003;67809;55.034;73.462;2024-01-15T05:27:00;28.00;20.00;12.00
78512;PMS5003;67809;55.034;73.462;2024-01-15T05:32:10;34.50;26.50;17.25
78512;PMS5003;67809;55.034;73.462;2024-01-15T05:34:39;30.00;24.00;14.67
78512;PMS5003;67809;55.034;73.462;2024-01-15T05:37:23;22.50;18.00;11.00
78512;PMS5003;67809;55.034;73.462;2024-01-15T05:39:49;31.75;25.00;15.00
78512;PMS5003;67809;55.034;73.462;2024-01-15T05:42:41;18.25;13.50;8.00
78512;PMS5003;67809;55.034;73.462;2024-01-15T05:45:07;23.67;18.00;12.00
78512;PMS5003;67809;55.034;73.462;2024-01-15T05:47:33;28.25;20.00;12.00
78512;PMS5003;67809;55.034;73.462;2024-01-15T05:50:00;25.75;19.75;12.00
78512;PMS5003;67809;55.034;73.462;2024-01-15T05:52:44;24.25;18.00;9.00
78512;PMS5003;67809;55.034;73.462;2024-01-15T05:55:10;13.50;11.75;7.25
78512;PMS5003;67809;55.034;73.462;2024-01-15T05:57:37;23.75;18.00;13.50
78512;PMS5003;67809;55.034;73.462;2024-01-15T06:00:08;15.50;10.75;6.25
78512;PMS5003;67809;55.034;73.462;2024-01-15T06:02:34;20.00;17.00;10.00
78512;PMS5003;67809;55.034;73.462;2024-01-15T06:05:00;16.00;13.00;8.00
78512;PMS5003;67809;55.034;73.462;2024-01-15T06:07:28;25.00;18.33;11.33
78512;PMS5003;67809;55.034;73.462;2024-01-15T06:10:25;23.00;19.00;12.50
78512;PMS5003;67809;55.034;73.462;2024-01-15T06:12:51;24.00;19.50;11.25
78512;PMS5003;67809;55.034;73.462;2024-01-15T06:15:17;21.67;17.00;11.00
78512;PMS5003;67809;55.034;73.462;2024-01-15T06:17:43;22.25;16.25;9.50
78512;PMS5003;67809;55.034;73.462;2024-01-15T06:20:28;17.00;12.25;7.00
78512;PMS5003;67809;55.034;73.462;2024-01-15T06:22:54;14.00;10.75;6.00
78512;PMS5003;67809;55.034;73.462;2024-01-15T06:25:20;20.00;15.00;8.00
78512;PMS5003;67809;55.034;73.462;2024-01-15T06:27:46;15.50;13.25;8.50
78512;PMS5003;67809;55.034;73.462;2024-01-15T06:30:12;15.25;13.00;7.00
78512;PMS5003;67809;55.034;73.462;2024-01-15T06:32:39;20.00;17.00;11.00
78512;PMS5003;67809;55.034;73.462;2024-01-15T06:35:05;20.25;15.25;9.25
78512;PMS5003;67809;55.034;73.462;2024-01-15T06:37:31;21.00;17.00;11.00
78512;PMS5003;67809;55.034;73.462;2024-01-15T06:39:58;25.75;19.00;11.00
78512;PMS5003;67809;55.034;73.462;2024-01-15T06:42:24;13.25;10.00;6.00
78512;PMS5003;67809;55.034;73.462;2024-01-15T06:44:51;18.00;14.75;9.00
78512;PMS5003;67809;55.034;73.462;2024-01-15T06:47:17;17.00;12.00;8.00
78512;PMS5003;67809;55.034;73.462;2024-01-15T06:52:28;24.50;20.25;13.00
78512;PMS5003;67809;55.034;73.462;2024-01-15T06:55:18;15.50;12.50;8.75
78512;PMS5003;67809;55.034;73.462;2024-01-15T06:58:03;15.00;11.00;6.00
78512;PMS5003;67809;55.034;73.462;2024-01-15T07:00:29;21.50;16.00;10.50
78512;PMS5003;67809;55.034;73.462;2024-01-15T07:02:55;18.75;14.50;9.00
78512;PMS5003;67809;55.034;73.462;2024-01-15T07:05:21;16.25;13.00;7.75
78512;PMS5003;67809;55.034;73.462;2024-01-15T07:07:47;17.25;14.00;9.00
78512;PMS5003;67809;55.034;73.462;2024-01-15T07:12:58;14.75;12.50;7.00
78512;PMS5003;67809;55.034;73.462;2024-01-15T07:15:24;17.00;13.75;8.50
78512;PMS5003;67809;55.034;73.462;2024-01-15T07:17:50;15.00;11.00;7.00
78512;PMS5003;67809;55.034;73.462;2024-01-15T07:20:17;32.25;23.00;14.75
78512;PMS5003;67809;55.034;73.462;2024-01-15T07:25:47;18.50;14.75;9.00
78512;PMS5003;67809;55.034;73.462;2024-01-15T07:28:32;17.33;13.67;9.67
78512;PMS5003;67809;55.034;73.462;2024-01-15T07:31:17;17.25;13.25;8.25
78512;PMS5003;67809;55.034;73.462;2024-01-15T07:33:43;19.00;15.50;12.00
78512;PMS5003;67809;55.034;73.462;2024-01-15T07:36:09;13.00;11.00;6.00
78512;PMS5003;67809;55.034;73.462;2024-01-15T07:38:36;18.00;13.00;8.33
78512;PMS5003;67809;55.034;73.462;2024-01-15T07:41:03;19.00;15.00;9.00
78512;PMS5003;67809;55.034;73.462;2024-01-15T07:43:29;18.75;11.25;6.25
78512;PMS5003;67809;55.034;73.462;2024-01-15T07:45:56;16.00;13.00;8.00
78512;PMS5003;67809;55.034;73.462;2024-01-15T07:48:22;20.00;16.00;10.00
78512;PMS5003;67809;55.034;73.462;2024-01-15T07:50:49;13.75;11.00;6.75
78512;PMS5003;67809;55.034;73.462;2024-01-15T07:53:15;9.75;8.00;5.00
78512;PMS5003;67809;55.034;73.462;2024-01-15T07:55:41;11.00;9.00;5.00
78512;PMS5003;67809;55.034;73.462;2024-01-15T07:58:07;17.00;13.33;8.67
78512;PMS5003;67809;55.034;73.462;2024-01-15T08:00:33;14.75;11.00;6.25
78512;PMS5003;67809;55.034;73.462;2024-01-15T08:02:59;15.25;12.00;6.50
78512;PMS5003;67809;55.034;73.462;2024-01-15T08:05:36;19.75;16.00;10.00
78512;PMS5003;67809;55.034;73.462;2024-01-15T08:08:03;13.00;10.00;7.00
78512;PMS5003;67809;55.034;73.462;2024-01-15T08:13:14;9.25;7.75;5.00
78512;PMS5003;67809;55.034;73.462;2024-01-15T08:15:40;11.50;9.00;6.00
78512;PMS5003;67809;55.034;73.462;2024-01-15T08:18:07;21.00;16.33;7.67
78512;PMS5003;67809;55.034;73.462;2024-01-15T08:20:51;14.00;11.00;7.25
78512;PMS5003;67809;55.034;73.462;2024-01-15T08:26:02;14.00;10.00;6.50
78512;PMS5003;67809;55.034;73.462;2024-01-15T08:28:28;15.33;12.00;7.00
78512;PMS5003;67809;55.034;73.462;2024-01-15T08:30:59;14.75;11.75;7.00
78512;PMS5003;67809;55.034;73.462;2024-01-15T08:33:25;18.00;15.00;9.00
78512;PMS5003;67809;55.034;73.462;2024-01-15T08:38:44;19.33;14.67;9.00
78512;PMS5003;67809;55.034;73.462;2024-01-15T08:41:10;17.00;14.00;9.25
78512;PMS5003;67809;55.034;73.462;2024-01-15T08:43:36;19.25;15.00;10.00
78512;PMS5003;67809;55.034;73.462;2024-01-15T08:46:22;15.75;13.75;9.00
78512;PMS5003;67809;55.034;73.462;2024-01-15T08:48:48;16.00;13.00;7.33
78512;PMS5003;67809;55.034;73.462;2024-01-15T08:51:14;19.00;14.25;8.00
78512;PMS5003;67809;55.034;73.462;2024-01-15T08:53:41;19.75;15.00;9.00
78512;PMS5003;67809;55.034;73.462;2024-01-15T08:56:07;18.00;14.00;9.00
78512;PMS5003;67809;55.034;73.462;2024-01-15T08:58:34;16.00;12.75;9.00
78512;PMS5003;67809;55.034;73.462;2024-01-15T09:01:00;14.75;12.00;7.00
78512;PMS5003;67809;55.034;73.462;2024-01-15T09:03:26;17.00;13.00;7.00
78512;PMS5003;67809;55.034;73.462;2024-01-15T09:05:53;13.50;10.50;6.50
78512;PMS5003;67809;55.034;73.462;2024-01-15T09:11:04;24.50;19.00;11.00
78512;PMS5003;67809;55.034;73.462;2024-01-15T09:13:31;24.00;19.00;11.00
78512;PMS5003;67809;55.034;73.462;2024-01-15T09:15:58;19.25;15.25;9.25
78512;PMS5003;67809;55.034;73.462;2024-01-15T09:21:08;36.25;28.00;17.50
78512;PMS5003;67809;55.034;73.462;2024-01-15T09:23:35;55.50;40.75;23.50
78512;PMS5003;67809;55.034;73.462;2024-01-15T09:26:22;34.25;27.00;16.00
78512;PMS5003;67809;55.034;73.462;2024-01-15T09:28:56;33.67;27.00;18.00
78512;PMS5003;67809;55.034;73.462;2024-01-15T09:31:23;29.75;22.00;14.25
78512;PMS5003;67809;55.034;73.462;2024-01-15T09:33:49;22.75;19.00;12.00
78512;PMS5003;67809;55.034;73.462;2024-01-15T09:36:18;23.25;19.00;11.50
78512;PMS5003;67809;55.034;73.462;2024-01-15T09:38:44;29.33;23.00;14.00
78512;PMS5003;67809;55.034;73.462;2024-01-15T09:41:10;29.00;23.00;14.25
78512;PMS5003;67809;55.034;73.462;2024-01-15T09:43:36;26.75;21.25;14.00
78512;PMS5003;67809;55.034;73.462;2024-01-15T09:46:03;23.75;18.50;9.75
78512;PMS5003;67809;55.034;73.462;2024-01-15T09:48:30;25.50;20.50;12.25
78512;PMS5003;67809;55.034;73.462;2024-01-15T09:51:00;28.25;21.50;14.00
78512;PMS5003;67809;55.034;73.462;2024-01-15T09:53:27;27.00;20.50;12.00
78512;PMS5003;67809;55.034;73.462;2024-01-15T09:55:53;23.75;18.00;10.00
78512;PMS5003;67809;55.034;73.462;2024-01-15T09:58:19;32.00;22.33;14.00
78512;PMS5003;67809;55.034;73.462;2024-01-15T10:01:04;26.50;20.00;11.50
78512;PMS5003;67809;55.034;73.462;2024-01-15T10:03:31;27.00;22.00;15.00
78512;PMS5003;67809;55.034;73.462;2024-01-15T10:06:16;28.00;22.00;13.00
78512;PMS5003;67809;55.034;73.462;2024-01-15T10:08:48;20.00;17.00;12.00
78512;PMS5003;67809;55.034;73.462;2024-01-15T10:11:15;24.00;19.25;11.00
78512;PMS5003;67809;55.034;73.462;2024-01-15T10:14:00;27.00;22.00;13.00
78512;PMS5003;67809;55.034;73.462;2024-01-15T13:23:47;41.50;31.25;19.25
78512;PMS5003;67809;55.034;73.462;2024-01-15T13:26:13;46.25;34.00;21.50
78512;PMS5003;67809;55.034;73.462;2024-01-15T13:28:39;57.00;40.00;24.00
78512;PMS5003;67809;55.034;73.462;2024-01-15T13:31:25;51.00;38.00;23.00
78512;PMS5003;67809;55.034;73.462;2024-01-15T13:33:52;57.00;41.25;24.25
78512;PMS5003;67809;55.034;73.462;2024-01-15T13:36:18;49.50;35.50;21.00
78512;PMS5003;67809;55.034;73.462;2024-01-15T13:39:03;50.00;36.75;22.50
78512;PMS5003;67809;55.034;73.462;2024-01-15T13:41:34;49.00;37.00;23.00
78512;PMS5003;67809;55.034;73.462;2024-01-15T13:44:01;52.75;38.50;24.00
78512;PMS5003;67809;55.034;73.462;2024-01-15T13:46:45;55.75;41.75;25.00
78512;PMS5003;67809;55.034;73.462;2024-01-15T13:49:30;41.25;31.25;19.25
78512;PMS5003;67809;55.034;73.462;2024-01-15T13:51:56;56.00;40.00;26.00
78512;PMS5003;67809;55.034;73.462;2024-01-15T13:54:22;51.50;37.75;23.00
78512;PMS5003;67809;55.034;73.462;2024-01-15T13:56:48;67.75;47.50;27.25
78512;PMS5003;67809;55.034;73.462;2024-01-15T13:59:15;55.50;39.25;24.00
78512;PMS5003;67809;55.034;73.462;2024-01-15T14:01:42;53.67;39.00;25.00
78512;PMS5003;67809;55.034;73.462;2024-01-15T14:04:08;49.50;36.50;22.25
78512;PMS5003;67809;55.034;73.462;2024-01-15T14:06:34;51.25;37.25;22.25
78512;PMS5003;67809;55.034;73.462;2024-01-15T14:09:19;50.50;38.50;23.50
78512;PMS5003;67809;55.034;73.462;2024-01-15T14:11:45;53.00;39.33;23.33
78512;PMS5003;67809;55.034;73.462;2024-01-15T14:14:11;52.00;34.75;22.00
78512;PMS5003;67809;55.034;73.462;2024-01-15T14:16:56;51.25;38.25;22.25
78512;PMS5003;67809;55.034;73.462;2024-01-15T14:19:23;49.25;36.50;22.00
78512;PMS5003;67809;55.034;73.462;2024-01-15T14:22:08;55.00;40.00;23.50
78512;PMS5003;67809;55.034;73.462;2024-01-15T14:24:52;68.25;49.75;30.75
78512;PMS5003;67809;55.034;73.462;2024-01-15T14:27:18;56.50;41.00;23.50
78512;PMS5003;67809;55.034;73.462;2024-01-15T14:29:44;55.50;41.25;25.75
78512;PMS5003;67809;55.034;73.462;2024-01-15T14:32:18;64.33;44.00;27.00
78512;PMS5003;67809;55.034;73.462;2024-01-15T14:34:44;60.50;43.75;26.00
78512;PMS5003;67809;55.034;73.462;2024-01-15T14:37:29;55.00;41.75;25.00
78512;PMS5003;67809;55.034;73.462;2024-01-15T14:39:55;45.50;33.50;20.75
78512;PMS5003;67809;55.034;73.462;2024-01-15T14:42:21;52.00;36.75;22.50
78512;PMS5003;67809;55.034;73.462;2024-01-15T14:45:06;53.00;37.00;25.00
78512;PMS5003;67809;55.034;73.462;2024-01-15T14:47:38;49.25;34.75;20.00
78512;PMS5003;67809;55.034;73.462;2024-01-15T14:50:08;51.50;39.00;24.00
78512;PMS5003;67809;55.034;73.462;2024-01-15T14:52:40;35.33;26.00;16.00
78512;PMS5003;67809;55.034;73.462;2024-01-15T14:55:10;47.00;35.50;22.00
78512;PMS5003;67809;55.034;73.462;2024-01-15T14:57:36;36.75;28.00;17.00
78512;PMS5003;67809;55.034;73.462;2024-01-15T15:00:04;42.50;32.00;19.00
78512;PMS5003;67809;55.034;73.462;2024-01-15T15:02:45;32.67;25.00;16.33
78512;PMS5003;67809;55.034;73.462;2024-01-15T15:05:11;43.75;32.75;20.00
78512;PMS5003;67809;55.034;73.462;2024-01-15T15:07:39;31.00;24.00;15.00
78512;PMS5003;67809;55.034;73.462;2024-01-15T15:10:07;34.25;22.50;14.00
78512;PMS5003;67809;55.034;73.462;2024-01-15T15:12:33;39.25;30.00;18.00
78512;PMS5003;67809;55.034;73.462;2024-01-15T15:15:01;39.50;30.75;19.50
78512;PMS5003;67809;55.034;73.462;2024-01-15T15:17:27;45.75;33.25;20.00
78512;PMS5003;67809;55.034;73.462;2024-01-15T15:19:53;42.00;31.00;18.00
78512;PMS5003;67809;55.034;73.462;2024-01-15T15:22:20;38.00;28.33;16.00
78512;PMS5003;67809;55.034;73.462;2024-01-15T15:24:47;45.00;33.00;21.00
78512;PMS5003;67809;55.034;73.462;2024-01-15T15:29:58;27.25;22.00;15.00
78512;PMS5003;67809;55.034;73.462;2024-01-15T15:32:24;38.00;30.50;20.50
78512;PMS5003;67809;55.034;73.462;2024-01-15T15:34:51;29.50;20.00;12.00
78512;PMS5003;67809;55.034;73.462;2024-01-15T15:40:03;18.00;15.50;7.75
78512;PMS5003;67809;55.034;73.462;2024-01-15T15:42:34;23.00;19.00;11.00
78512;PMS5003;67809;55.034;73.462;2024-01-15T15:45:00;30.00;21.75;13.00
78512;PMS5003;67809;55.034;73.462;2024-01-15T15:47:27;23.50;15.00;9.25
78512;PMS5003;67809;55.034;73.462;2024-01-15T15:49:53;23.00;18.00;11.75
78512;PMS5003;67809;55.034;73.462;2024-01-15T15:52:19;27.00;19.25;11.00
78512;PMS5003;67809;55.034;73.462;2024-01-15T15:57:50;41.00;30.25;17.75
78512;PMS5003;67809;55.034;73.462;2024-01-15T16:00:16;33.25;25.25;14.00
78512;PMS5003;67809;55.034;73.462;2024-01-15T16:02:45;34.00;23.33;14.67
78512;PMS5003;67809;55.034;73.462;2024-01-15T16:05:12;27.00;22.75;15.00
78512;PMS5003;67809;55.034;73.462;2024-01-15T16:07:38;39.00;30.00;19.00
78512;PMS5003;67809;55.034;73.462;2024-01-15T16:10:06;45.75;34.00;20.00
78512;PMS5003;67809;55.034;73.462;2024-01-15T16:12:33;40.00;32.00;20.00
78512;PMS5003;67809;55.034;73.462;2024-01-15T16:15:18;33.00;26.00;16.00
78512;PMS5003;67809;55.034;73.462;2024-01-15T16:17:48;38.00;28.00;17.00
78512;PMS5003;67809;55.034;73.462;2024-01-15T16:20:18;32.00;23.00;13.50
78512;PMS5003;67809;55.034;73.462;2024-01-15T16:22:44;35.00;27.25;16.75
78512;PMS5003;67809;55.034;73.462;2024-01-15T16:25:10;25.25;19.25;10.00
78512;PMS5003;67809;55.034;73.462;2024-01-15T16:28:10;36.00;27.00;17.25
78512;PMS5003;67809;55.034;73.462;2024-01-15T16:30:37;29.50;23.50;15.50
78512;PMS5003;67809;55.034;73.462;2024-01-15T16:33:23;45.25;33.25;19.50
78512;PMS5003;67809;55.034;73.462;2024-01-15T16:35:49;39.25;29.75;17.75
78512;PMS5003;67809;55.034;73.462;2024-01-15T16:38:34;32.75;25.00;14.50
78512;PMS5003;67809;55.034;73.462;2024-01-15T16:41:00;34.00;26.00;14.25
78512;PMS5003;67809;55.034;73.462;2024-01-15T16:43:26;43.00;32.00;20.50
78512;PMS5003;67809;55.034;73.462;2024-01-15T16:45:53;49.00;38.00;23.00
78512;PMS5003;67809;55.034;73.462;2024-01-15T16:48:28;36.00;27.25;17.00
78512;PMS5003;67809;55.034;73.462;2024-01-15T16:50:54;46.00;33.75;20.00
78512;PMS5003;67809;55.034;73.462;2024-01-15T16:53:21;36.00;26.00;13.00
78512;PMS5003;67809;55.034;73.462;2024-01-15T16:55:47;30.50;22.00;12.75
78512;PMS5003;67809;55.034;73.462;2024-01-15T16:58:14;48.25;34.00;21.25
78512;PMS5003;67809;55.034;73.462;2024-01-15T17:00:40;31.00;24.25;15.00
78512;PMS5003;67809;55.034;73.462;2024-01-15T17:03:25;40.00;27.00;17.00
78512;PMS5003;67809;55.034;73.462;2024-01-15T17:05:51;34.50;25.00;15.25
78512;PMS5003;67809;55.034;73.462;2024-01-15T17:08:36;31.50;25.00;14.75
78512;PMS5003;67809;55.034;73.462;2024-01-15T17:11:02;33.50;25.50;14.50
78512;PMS5003;67809;55.034;73.462;2024-01-15T17:13:30;27.50;21.00;13.00
78512;PMS5003;67809;55.034;73.462;2024-01-15T17:15:58;34.25;26.25;19.00
78512;PMS5003;67809;55.034;73.462;2024-01-15T17:18:24;17.75;14.50;9.25
78512;PMS5003;67809;55.034;73.462;2024-01-15T17:20:50;31.00;24.25;15.00
78512;PMS5003;67809;55.034;73.462;2024-01-15T17:23:16;33.00;24.00;13.00
78512;PMS5003;67809;55.034;73.462;2024-01-15T17:25:43;44.75;29.75;18.75
78512;PMS5003;67809;55.034;73.462;2024-01-15T17:28:10;30.75;24.00;15.00
78512;PMS5003;67809;55.034;73.462;2024-01-15T17:33:21;29.75;22.50;13.00
78512;PMS5003;67809;55.034;73.462;2024-01-15T17:35:50;36.75;27.00;16.00
78512;PMS5003;67809;55.034;73.462;2024-01-15T17:38:18;34.50;26.50;16.00
78512;PMS5003;67809;55.034;73.462;2024-01-15T17:40:44;34.25;26.75;17.00
78512;PMS5003;67809;55.034;73.462;2024-01-15T17:45:54;43.00;32.00;19.00
78512;PMS5003;67809;55.034;73.462;2024-01-15T17:48:21;23.25;19.00;11.00
78512;PMS5003;67809;55.034;73.462;2024-01-15T17:53:33;29.00;21.50;13.75
78512;PMS5003;67809;55.034;73.462;2024-01-15T17:59:04;28.50;21.50;12.75
78512;PMS5003;67809;55.034;73.462;2024-01-15T18:01:30;27.75;20.00;10.25
78512;PMS5003;67809;55.034;73.462;2024-01-15T18:03:58;34.00;26.00;15.00
78512;PMS5003;67809;55.034;73.462;2024-01-15T18:06:29;30.00;24.00;14.33
78512;PMS5003;67809;55.034;73.462;2024-01-15T18:08:56;28.25;23.00;14.75
78512;PMS5003;67809;55.034;73.462;2024-01-15T18:11:22;29.00;23.50;16.50
78512;PMS5003;67809;55.034;73.462;2024-01-15T18:13:48;26.25;20.50;12.00